sensor_id;sensor_type;location;lat;lon;timestamp;pressure;altitude;pressure_sealevel;temperature;humidity
5753;BME280;2901;42.140;24.760;2022-09-09T00:01:34;99646.59;;;19.80;92.14
5753;BME280;2901;42.140;24.760;2022-09-09T00:09:16;99643.66;;;19.88;91.92
5753;BME280;2901;42.140;24.760;2022-09-09T00:11:52;99640.00;;;19.92;91.92
5753;BME280;2901;42.140;24.760;2022-09-09T00:14:54;99644.59;;;19.87;92.47
5753;BME280;2901;42.140;24.760;2022-09-09T00:17:35;99642.63;;;19.92;91.69
5753;BME280;2901;42.140;24.760;2022-09-09T00:20:13;99648.25;;;19.83;91.28
5753;BME280;2901;42.140;24.760;2022-09-09T00:22:47;99643.50;;;19.71;90.65
5753;BME280;2901;42.140;24.760;2022-09-09T00:25:28;99643.00;;;19.62;90.32
5753;BME280;2901;42.140;24.760;2022-09-09T00:27:57;99637.59;;;19.65;89.90
5753;BME280;2901;42.140;24.760;2022-09-09T00:30:24;99644.81;;;19.60;89.55
5753;BME280;2901;42.140;24.760;2022-09-09T00:32:54;99647.25;;;19.65;89.42
5753;BME280;2901;42.140;24.760;2022-09-09T00:35:33;99653.16;;;19.70;88.62
5753;BME280;2901;42.140;24.760;2022-09-09T00:38:19;99664.19;;;19.58;89.33
5753;BME280;2901;42.140;24.760;2022-09-09T00:40:52;99658.44;;;19.48;89.82
5753;BME280;2901;42.140;24.760;2022-09-09T00:43:31;99656.69;;;19.49;90.09
5753;BME280;2901;42.140;24.760;2022-09-09T00:59:52;99658.63;;;19.86;88.32
5753;BME280;2901;42.140;24.760;2022-09-09T01:02:34;99658.75;;;19.83;88.67
5753;BME280;2901;42.140;24.760;2022-09-09T01:05:18;99656.13;;;19.83;89.27
5753;BME280;2901;42.140;24.760;2022-09-09T01:07:48;99656.84;;;19.86;88.83
5753;BME280;2901;42.140;24.760;2022-09-09T01:13:32;99658.44;;;19.90;90.14
5753;BME280;2901;42.140;24.760;2022-09-09T01:16:00;99662.06;;;19.88;90.51
5753;BME280;2901;42.140;24.760;2022-09-09T01:18:36;99654.44;;;19.82;90.33
5753;BME280;2901;42.140;24.760;2022-09-09T01:26:43;99656.25;;;19.80;91.33
5753;BME280;2901;42.140;24.760;2022-09-09T01:29:11;99654.56;;;19.79;91.72
5753;BME280;2901;42.140;24.760;2022-09-09T01:31:51;99654.03;;;19.71;91.88
5753;BME280;2901;42.140;24.760;2022-09-09T01:34:17;99645.97;;;19.53;91.20
5753;BME280;2901;42.140;24.760;2022-09-09T01:36:46;99649.94;;;19.42;90.84
5753;BME280;2901;42.140;24.760;2022-09-09T01:39:13;99650.81;;;19.42;90.53
5753;BME280;2901;42.140;24.760;2022-09-09T01:41:38;99650.56;;;19.48;90.56
5753;BME280;2901;42.140;24.760;2022-09-09T01:44:05;99647.06;;;19.48;90.57
5753;BME280;2901;42.140;24.760;2022-09-09T01:46:31;99644.41;;;19.49;91.09
5753;BME280;2901;42.140;24.760;2022-09-09T01:48:57;99648.78;;;19.49;90.94
5753;BME280;2901;42.140;24.760;2022-09-09T01:51:24;99638.22;;;19.50;90.98
5753;BME280;2901;42.140;24.760;2022-09-09T01:53:49;99635.72;;;19.47;91.09
5753;BME280;2901;42.140;24.760;2022-09-09T02:01:45;99644.94;;;19.57;90.80
5753;BME280;2901;42.140;24.760;2022-09-09T02:07:07;99646.91;;;19.52;91.65
5753;BME280;2901;42.140;24.760;2022-09-09T02:09:33;99648.47;;;19.56;91.37
5753;BME280;2901;42.140;24.760;2022-09-09T02:12:06;99644.19;;;19.54;91.94
5753;BME280;2901;42.140;24.760;2022-09-09T02:14:36;99637.31;;;19.51;92.10
5753;BME280;2901;42.140;24.760;2022-09-09T02:17:15;99643.34;;;19.53;92.50
5753;BME280;2901;42.140;24.760;2022-09-09T02:20:03;99641.66;;;19.52;92.89
5753;BME280;2901;42.140;24.760;2022-09-09T02:22:31;99636.44;;;19.51;93.36
5753;BME280;2901;42.140;24.760;2022-09-09T02:24:59;99635.59;;;19.50;93.62
5753;BME280;2901;42.140;24.760;2022-09-09T02:27:25;99633.91;;;19.49;93.84
5753;BME280;2901;42.140;24.760;2022-09-09T02:29:52;99631.38;;;19.46;94.59
5753;BME280;2901;42.140;24.760;2022-09-09T02:32:22;99640.19;;;19.45;94.39
5753;BME280;2901;42.140;24.760;2022-09-09T02:34:55;99644.50;;;19.46;94.17
5753;BME280;2901;42.140;24.760;2022-09-09T02:37:26;99634.00;;;19.46;93.81
5753;BME280;2901;42.140;24.760;2022-09-09T02:39:54;99642.84;;;19.44;94.01
5753;BME280;2901;42.140;24.760;2022-09-09T02:42:19;99644.78;;;19.39;95.05
5753;BME280;2901;42.140;24.760;2022-09-09T02:44:45;99639.97;;;19.28;95.68
5753;BME280;2901;42.140;24.760;2022-09-09T02:47:20;99649.69;;;19.26;95.38
5753;BME280;2901;42.140;24.760;2022-09-09T02:50:10;99634.75;;;19.27;95.41
5753;BME280;2901;42.140;24.760;2022-09-09T02:53:11;99641.34;;;19.15;94.26
5753;BME280;2901;42.140;24.760;2022-09-09T02:58:07;99655.34;;;19.15;95.51
5753;BME280;2901;42.140;24.760;2022-09-09T03:00:36;99648.50;;;19.11;95.23
5753;BME280;2901;42.140;24.760;2022-09-09T03:03:06;99650.38;;;19.08;93.28
5753;BME280;2901;42.140;24.760;2022-09-09T03:05:32;99658.25;;;19.08;94.52
5753;BME280;2901;42.140;24.760;2022-09-09T03:07:58;99650.53;;;19.03;93.73
5753;BME280;2901;42.140;24.760;2022-09-09T03:10:24;99649.03;;;18.98;92.85
5753;BME280;2901;42.140;24.760;2022-09-09T03:12:49;99648.34;;;18.93;93.14
5753;BME280;2901;42.140;24.760;2022-09-09T03:15:15;99641.09;;;18.99;93.10
5753;BME280;2901;42.140;24.760;2022-09-09T03:17:41;99647.38;;;18.95;92.67
5753;BME280;2901;42.140;24.760;2022-09-09T03:20:07;99660.41;;;18.97;93.00
5753;BME280;2901;42.140;24.760;2022-09-09T03:22:33;99655.75;;;19.05;91.43
5753;BME280;2901;42.140;24.760;2022-09-09T03:24:59;99662.47;;;19.12;90.33
5753;BME280;2901;42.140;24.760;2022-09-09T03:27:24;99667.63;;;19.15;89.66
5753;BME280;2901;42.140;24.760;2022-09-09T03:29:50;99669.34;;;19.16;89.68
5753;BME280;2901;42.140;24.760;2022-09-09T03:32:17;99665.03;;;19.13;90.88
5753;BME280;2901;42.140;24.760;2022-09-09T03:34:43;99677.13;;;19.17;90.24
5753;BME280;2901;42.140;24.760;2022-09-09T03:37:08;99677.13;;;19.17;89.29
5753;BME280;2901;42.140;24.760;2022-09-09T03:39:34;99673.09;;;19.09;90.57
5753;BME280;2901;42.140;24.760;2022-09-09T03:41:59;99680.00;;;19.11;92.27
5753;BME280;2901;42.140;24.760;2022-09-09T03:44:24;99686.38;;;19.04;93.70
5753;BME280;2901;42.140;24.760;2022-09-09T03:46:50;99673.38;;;19.01;94.44
5753;BME280;2901;42.140;24.760;2022-09-09T03:49:15;99670.88;;;18.98;94.57
5753;BME280;2901;42.140;24.760;2022-09-09T03:51:41;99679.66;;;18.97;94.80
5753;BME280;2901;42.140;24.760;2022-09-09T03:54:07;99675.47;;;18.93;93.11
5753;BME280;2901;42.140;24.760;2022-09-09T03:56:35;99683.50;;;18.89;94.30
5753;BME280;2901;42.140;24.760;2022-09-09T03:59:01;99676.38;;;18.92;93.91
5753;BME280;2901;42.140;24.760;2022-09-09T04:01:26;99673.91;;;18.88;93.08
5753;BME280;2901;42.140;24.760;2022-09-09T04:03:52;99674.25;;;18.79;92.86
5753;BME280;2901;42.140;24.760;2022-09-09T04:06:17;99672.53;;;18.78;92.73
5753;BME280;2901;42.140;24.760;2022-09-09T04:08:43;99675.16;;;18.78;93.47
5753;BME280;2901;42.140;24.760;2022-09-09T04:11:09;99670.84;;;18.77;93.11
5753;BME280;2901;42.140;24.760;2022-09-09T04:13:35;99676.41;;;18.67;93.53
5753;BME280;2901;42.140;24.760;2022-09-09T04:16:03;99672.75;;;18.72;93.44
5753;BME280;2901;42.140;24.760;2022-09-09T04:18:29;99674.53;;;18.71;93.79
5753;BME280;2901;42.140;24.760;2022-09-09T04:20:55;99672.00;;;18.68;94.16
5753;BME280;2901;42.140;24.760;2022-09-09T04:23:25;99672.66;;;18.75;95.72
5753;BME280;2901;42.140;24.760;2022-09-09T04:25:53;99668.03;;;18.81;95.59
5753;BME280;2901;42.140;24.760;2022-09-09T04:28:20;99658.38;;;18.82;96.30
5753;BME280;2901;42.140;24.760;2022-09-09T04:30:46;99661.91;;;18.81;96.87
5753;BME280;2901;42.140;24.760;2022-09-09T04:33:13;99667.97;;;18.83;96.95
5753;BME280;2901;42.140;24.760;2022-09-09T04:35:39;99671.47;;;18.83;96.39
5753;BME280;2901;42.140;24.760;2022-09-09T04:38:08;99669.16;;;18.97;95.78
5753;BME280;2901;42.140;24.760;2022-09-09T04:40:35;99668.28;;;18.97;96.23
5753;BME280;2901;42.140;24.760;2022-09-09T04:43:01;99671.47;;;19.06;95.73
5753;BME280;2901;42.140;24.760;2022-09-09T04:45:28;99672.84;;;19.15;95.37
5753;BME280;2901;42.140;24.760;2022-09-09T04:47:54;99678.91;;;19.17;95.39
5753;BME280;2901;42.140;24.760;2022-09-09T04:50:20;99694.66;;;19.17;95.39
5753;BME280;2901;42.140;24.760;2022-09-09T04:52:45;99687.91;;;19.10;96.06
5753;BME280;2901;42.140;24.760;2022-09-09T04:55:11;99694.34;;;19.03;96.64
5753;BME280;2901;42.140;24.760;2022-09-09T04:57:38;99695.63;;;18.91;97.23
5753;BME280;2901;42.140;24.760;2022-09-09T05:00:04;99697.84;;;18.79;97.91
5753;BME280;2901;42.140;24.760;2022-09-09T05:02:29;99704.00;;;18.78;97.60
5753;BME280;2901;42.140;24.760;2022-09-09T05:04:55;99700.38;;;18.82;98.02
5753;BME280;2901;42.140;24.760;2022-09-09T05:07:21;99697.72;;;18.83;97.54
5753;BME280;2901;42.140;24.760;2022-09-09T05:09:47;99706.31;;;18.87;96.24
5753;BME280;2901;42.140;24.760;2022-09-09T05:12:15;99696.50;;;18.92;95.88
5753;BME280;2901;42.140;24.760;2022-09-09T05:14:42;99704.03;;;19.01;95.42
5753;BME280;2901;42.140;24.760;2022-09-09T05:17:07;99706.53;;;19.04;95.70
5753;BME280;2901;42.140;24.760;2022-09-09T05:19:33;99694.25;;;19.04;95.45
5753;BME280;2901;42.140;24.760;2022-09-09T05:21:58;99685.41;;;19.07;94.87
5753;BME280;2901;42.140;24.760;2022-09-09T05:24:23;99691.53;;;19.07;94.04
5753;BME280;2901;42.140;24.760;2022-09-09T05:26:49;99694.84;;;19.12;93.58
5753;BME280;2901;42.140;24.760;2022-09-09T05:29:14;99686.88;;;19.14;92.14
5753;BME280;2901;42.140;24.760;2022-09-09T05:31:40;99682.50;;;19.14;92.47
5753;BME280;2901;42.140;24.760;2022-09-09T05:34:06;99686.00;;;19.15;92.29
5753;BME280;2901;42.140;24.760;2022-09-09T05:36:31;99693.78;;;19.16;93.03
5753;BME280;2901;42.140;24.760;2022-09-09T05:38:57;99696.22;;;19.23;92.59
5753;BME280;2901;42.140;24.760;2022-09-09T05:41:23;99696.88;;;19.28;92.50
5753;BME280;2901;42.140;24.760;2022-09-09T05:43:48;99689.06;;;19.26;91.85
5753;BME280;2901;42.140;24.760;2022-09-09T05:46:22;99692.44;;;19.30;91.82
5753;BME280;2901;42.140;24.760;2022-09-09T05:48:48;99706.09;;;19.16;91.73
5753;BME280;2901;42.140;24.760;2022-09-09T05:51:22;99694.78;;;19.14;91.93
5753;BME280;2901;42.140;24.760;2022-09-09T05:53:49;99696.97;;;19.03;92.51
5753;BME280;2901;42.140;24.760;2022-09-09T05:56:27;99698.72;;;18.79;93.04
5753;BME280;2901;42.140;24.760;2022-09-09T05:58:53;99694.22;;;18.58;94.10
5753;BME280;2901;42.140;24.760;2022-09-09T06:01:28;99690.66;;;18.60;94.17
5753;BME280;2901;42.140;24.760;2022-09-09T06:03:54;99690.66;;;18.60;94.40
5753;BME280;2901;42.140;24.760;2022-09-09T06:06:25;99690.72;;;18.59;94.34
5753;BME280;2901;42.140;24.760;2022-09-09T06:08:54;99672.13;;;18.65;94.48
5753;BME280;2901;42.140;24.760;2022-09-09T06:11:20;99673.22;;;18.83;93.51
5753;BME280;2901;42.140;24.760;2022-09-09T06:13:47;99672.72;;;18.96;92.77
5753;BME280;2901;42.140;24.760;2022-09-09T06:16:16;99671.88;;;19.17;91.81
5753;BME280;2901;42.140;24.760;2022-09-09T06:18:42;99674.66;;;19.36;90.24
5753;BME280;2901;42.140;24.760;2022-09-09T06:21:14;99669.81;;;19.49;89.64
5753;BME280;2901;42.140;24.760;2022-09-09T06:23:40;99665.03;;;19.58;88.92
5753;BME280;2901;42.140;24.760;2022-09-09T06:26:11;99666.50;;;19.65;87.94
5753;BME280;2901;42.140;24.760;2022-09-09T06:28:37;99660.56;;;19.82;87.26
5753;BME280;2901;42.140;24.760;2022-09-09T06:31:07;99660.44;;;19.85;86.45
5753;BME280;2901;42.140;24.760;2022-09-09T06:33:35;99663.72;;;19.90;86.10
5753;BME280;2901;42.140;24.760;2022-09-09T06:36:03;99677.28;;;20.01;86.40
5753;BME280;2901;42.140;24.760;2022-09-09T06:38:31;99679.16;;;19.98;86.53
5753;BME280;2901;42.140;24.760;2022-09-09T06:40:58;99683.38;;;20.02;87.00
5753;BME280;2901;42.140;24.760;2022-09-09T06:43:25;99682.56;;;20.00;86.26
5753;BME280;2901;42.140;24.760;2022-09-09T06:48:47;99679.19;;;20.18;85.67
5753;BME280;2901;42.140;24.760;2022-09-09T06:51:23;99683.63;;;20.38;85.48
5753;BME280;2901;42.140;24.760;2022-09-09T06:53:55;99685.75;;;20.48;84.86
5753;BME280;2901;42.140;24.760;2022-09-09T06:56:48;99683.53;;;20.59;84.77
5753;BME280;2901;42.140;24.760;2022-09-09T06:59:14;99683.34;;;20.64;84.14
5753;BME280;2901;42.140;24.760;2022-09-09T07:01:43;99686.31;;;20.75;84.23
5753;BME280;2901;42.140;24.760;2022-09-09T07:04:09;99675.16;;;20.89;83.65
5753;BME280;2901;42.140;24.760;2022-09-09T07:06:45;99678.91;;;21.03;83.90
5753;BME280;2901;42.140;24.760;2022-09-09T07:09:14;99680.22;;;21.13;83.38
5753;BME280;2901;42.140;24.760;2022-09-09T07:11:47;99682.41;;;21.23;82.56
5753;BME280;2901;42.140;24.760;2022-09-09T07:14:13;99674.72;;;21.37;82.50
5753;BME280;2901;42.140;24.760;2022-09-09T07:16:39;99667.44;;;21.42;81.03
5753;BME280;2901;42.140;24.760;2022-09-09T07:19:05;99665.22;;;21.51;80.81
5753;BME280;2901;42.140;24.760;2022-09-09T07:21:32;99676.25;;;21.59;80.35
5753;BME280;2901;42.140;24.760;2022-09-09T07:23:58;99672.66;;;21.60;80.87
5753;BME280;2901;42.140;24.760;2022-09-09T07:26:27;99671.94;;;21.76;80.90
5753;BME280;2901;42.140;24.760;2022-09-09T07:28:53;99674.78;;;21.90;79.68
5753;BME280;2901;42.140;24.760;2022-09-09T07:31:21;99673.13;;;22.04;78.93
5753;BME280;2901;42.140;24.760;2022-09-09T07:33:47;99672.28;;;22.04;79.00
5753;BME280;2901;42.140;24.760;2022-09-09T07:36:21;99678.03;;;22.12;79.20
5753;BME280;2901;42.140;24.760;2022-09-09T07:38:49;99672.28;;;22.38;78.64
5753;BME280;2901;42.140;24.760;2022-09-09T07:41:19;99668.13;;;22.67;75.97
5753;BME280;2901;42.140;24.760;2022-09-09T07:43:46;99671.47;;;22.70;75.72
5753;BME280;2901;42.140;24.760;2022-09-09T07:46:13;99663.22;;;22.77;74.05
5753;BME280;2901;42.140;24.760;2022-09-09T07:48:51;99661.88;;;22.85;75.04
5753;BME280;2901;42.140;24.760;2022-09-09T07:51:19;99660.53;;;22.94;73.34
5753;BME280;2901;42.140;24.760;2022-09-09T07:53:47;99654.72;;;22.87;73.14
5753;BME280;2901;42.140;24.760;2022-09-09T07:56:15;99659.09;;;23.04;73.49
5753;BME280;2901;42.140;24.760;2022-09-09T07:58:44;99660.63;;;23.23;72.05
5753;BME280;2901;42.140;24.760;2022-09-09T08:01:12;99655.81;;;23.47;71.05
5753;BME280;2901;42.140;24.760;2022-09-09T08:03:38;99653.81;;;23.66;70.35
5753;BME280;2901;42.140;24.760;2022-09-09T08:06:06;99652.34;;;23.76;69.30
5753;BME280;2901;42.140;24.760;2022-09-09T08:08:33;99651.53;;;23.90;68.78
5753;BME280;2901;42.140;24.760;2022-09-09T08:11:11;99641.09;;;24.03;68.38
5753;BME280;2901;42.140;24.760;2022-09-09T08:13:37;99644.28;;;24.23;68.12
5753;BME280;2901;42.140;24.760;2022-09-09T08:16:09;99652.59;;;24.32;66.05
5753;BME280;2901;42.140;24.760;2022-09-09T08:18:35;99645.13;;;24.38;66.12
5753;BME280;2901;42.140;24.760;2022-09-09T08:21:12;99642.31;;;24.55;65.27
5753;BME280;2901;42.140;24.760;2022-09-09T08:23:40;99632.41;;;24.59;64.94
5753;BME280;2901;42.140;24.760;2022-09-09T08:26:17;99634.84;;;24.62;64.88
5753;BME280;2901;42.140;24.760;2022-09-09T08:28:48;99637.69;;;24.73;64.74
5753;BME280;2901;42.140;24.760;2022-09-09T08:31:27;99632.31;;;24.89;64.30
5753;BME280;2901;42.140;24.760;2022-09-09T08:33:56;99620.66;;;25.05;63.59
5753;BME280;2901;42.140;24.760;2022-09-09T08:36:24;99614.69;;;25.02;63.90
5753;BME280;2901;42.140;24.760;2022-09-09T08:38:52;99622.19;;;24.95;63.81
5753;BME280;2901;42.140;24.760;2022-09-09T08:44:00;99617.13;;;25.19;62.23
5753;BME280;2901;42.140;24.760;2022-09-09T08:52:28;99621.47;;;25.61;60.78
5753;BME280;2901;42.140;24.760;2022-09-09T08:55:03;99611.72;;;25.47;61.53
5753;BME280;2901;42.140;24.760;2022-09-09T08:57:35;99613.59;;;25.59;60.52
5753;BME280;2901;42.140;24.760;2022-09-09T09:00:01;99618.19;;;25.70;60.37
5753;BME280;2901;42.140;24.760;2022-09-09T09:10:42;99610.00;;;25.60;60.82
5753;BME280;2901;42.140;24.760;2022-09-09T09:13:50;99602.28;;;25.83;60.61
5753;BME280;2901;42.140;24.760;2022-09-09T09:19:14;99595.16;;;26.35;58.67
5753;BME280;2901;42.140;24.760;2022-09-09T09:27:18;99578.44;;;26.84;56.82
5753;BME280;2901;42.140;24.760;2022-09-09T09:29:48;99568.03;;;27.04;56.14
5753;BME280;2901;42.140;24.760;2022-09-09T09:32:18;99564.44;;;27.29;55.86
5753;BME280;2901;42.140;24.760;2022-09-09T09:34:51;99566.84;;;27.45;55.09
5753;BME280;2901;42.140;24.760;2022-09-09T09:37:22;99567.06;;;27.65;55.47
5753;BME280;2901;42.140;24.760;2022-09-09T09:39:48;99554.28;;;27.81;53.77
5753;BME280;2901;42.140;24.760;2022-09-09T09:42:17;99549.94;;;27.92;53.34
5753;BME280;2901;42.140;24.760;2022-09-09T09:44:43;99558.13;;;28.12;52.83
5753;BME280;2901;42.140;24.760;2022-09-09T09:47:19;99554.50;;;28.24;52.83
5753;BME280;2901;42.140;24.760;2022-09-09T09:49:55;99542.16;;;28.34;51.86
5753;BME280;2901;42.140;24.760;2022-09-09T09:52:23;99545.56;;;28.48;51.71
5753;BME280;2901;42.140;24.760;2022-09-09T09:54:49;99541.31;;;28.45;51.06
5753;BME280;2901;42.140;24.760;2022-09-09T09:57:16;99531.59;;;28.55;51.42
5753;BME280;2901;42.140;24.760;2022-09-09T09:59:43;99539.13;;;28.61;51.74
5753;BME280;2901;42.140;24.760;2022-09-09T10:04:37;99533.53;;;28.75;51.18
5753;BME280;2901;42.140;24.760;2022-09-09T10:07:18;99521.41;;;28.82;49.84
5753;BME280;2901;42.140;24.760;2022-09-09T10:09:45;99524.69;;;28.53;51.70
5753;BME280;2901;42.140;24.760;2022-09-09T10:15:02;99516.09;;;28.16;53.92
5753;BME280;2901;42.140;24.760;2022-09-09T10:23:42;99510.53;;;28.30;54.55
5753;BME280;2901;42.140;24.760;2022-09-09T10:26:38;99510.06;;;28.36;53.98
5753;BME280;2901;42.140;24.760;2022-09-09T10:29:37;99514.44;;;28.37;53.92
5753;BME280;2901;42.140;24.760;2022-09-09T10:42:46;99508.50;;;29.10;51.87
5753;BME280;2901;42.140;24.760;2022-09-09T10:50:58;99497.31;;;29.48;51.54
5753;BME280;2901;42.140;24.760;2022-09-09T10:53:47;99490.13;;;29.59;50.65
5753;BME280;2901;42.140;24.760;2022-09-09T10:56:18;99499.16;;;29.68;50.11
5753;BME280;2901;42.140;24.760;2022-09-09T10:59:13;99494.59;;;29.79;50.02
5753;BME280;2901;42.140;24.760;2022-09-09T11:04:16;99492.59;;;29.93;48.54
5753;BME280;2901;42.140;24.760;2022-09-09T11:06:48;99499.06;;;29.90;48.39
5753;BME280;2901;42.140;24.760;2022-09-09T11:09:21;99482.50;;;29.75;49.04
5753;BME280;2901;42.140;24.760;2022-09-09T11:16:59;99467.72;;;29.92;49.31
5753;BME280;2901;42.140;24.760;2022-09-09T11:19:41;99465.22;;;30.00;49.26
5753;BME280;2901;42.140;24.760;2022-09-09T11:27:56;99460.91;;;30.09;47.97
5753;BME280;2901;42.140;24.760;2022-09-09T11:41:07;99441.13;;;30.61;47.52
5753;BME280;2901;42.140;24.760;2022-09-09T11:43:50;99438.91;;;30.95;46.61
5753;BME280;2901;42.140;24.760;2022-09-09T11:46:19;99452.69;;;30.90;46.00
5753;BME280;2901;42.140;24.760;2022-09-09T11:48:58;99441.44;;;30.86;45.50
5753;BME280;2901;42.140;24.760;2022-09-09T11:51:30;99436.81;;;30.79;46.46
5753;BME280;2901;42.140;24.760;2022-09-09T11:59:20;99431.88;;;31.42;44.67
5753;BME280;2901;42.140;24.760;2022-09-09T12:02:12;99427.78;;;31.47;43.64
5753;BME280;2901;42.140;24.760;2022-09-09T12:04:40;99423.69;;;31.43;43.98
5753;BME280;2901;42.140;24.760;2022-09-09T12:14:43;99397.75;;;32.54;41.87
5753;BME280;2901;42.140;24.760;2022-09-09T12:17:23;99400.72;;;32.78;40.85
5753;BME280;2901;42.140;24.760;2022-09-09T12:36:57;99387.25;;;31.79;43.48
5753;BME280;2901;42.140;24.760;2022-09-09T12:39:31;99376.00;;;31.75;43.66
5753;BME280;2901;42.140;24.760;2022-09-09T12:41:59;99380.97;;;31.70;43.63
5753;BME280;2901;42.140;24.760;2022-09-09T12:44:25;99387.28;;;31.69;43.45
5753;BME280;2901;42.140;24.760;2022-09-09T12:46:53;99381.53;;;31.45;44.30
5753;BME280;2901;42.140;24.760;2022-09-09T12:49:38;99376.81;;;31.29;44.89
5753;BME280;2901;42.140;24.760;2022-09-09T12:52:06;99369.91;;;31.27;45.57
5753;BME280;2901;42.140;24.760;2022-09-09T12:54:35;99366.84;;;31.22;44.92
5753;BME280;2901;42.140;24.760;2022-09-09T12:57:02;99359.78;;;31.21;44.75
5753;BME280;2901;42.140;24.760;2022-09-09T12:59:42;99360.19;;;31.26;44.83
5753;BME280;2901;42.140;24.760;2022-09-09T13:02:26;99364.53;;;31.36;44.78
5753;BME280;2901;42.140;24.760;2022-09-09T13:04:53;99355.63;;;31.46;44.40
5753;BME280;2901;42.140;24.760;2022-09-09T13:07:20;99348.16;;;31.59;44.76
5753;BME280;2901;42.140;24.760;2022-09-09T13:09:48;99342.19;;;31.74;43.60
5753;BME280;2901;42.140;24.760;2022-09-09T13:12:19;99350.56;;;31.89;43.83
5753;BME280;2901;42.140;24.760;2022-09-09T13:14:51;99352.00;;;31.83;43.38
5753;BME280;2901;42.140;24.760;2022-09-09T13:17:25;99346.88;;;31.63;44.64
5753;BME280;2901;42.140;24.760;2022-09-09T13:19:54;99333.91;;;31.58;44.85
5753;BME280;2901;42.140;24.760;2022-09-09T13:22:35;99324.34;;;31.56;44.65
5753;BME280;2901;42.140;24.760;2022-09-09T13:27:38;99330.16;;;31.78;43.78
5753;BME280;2901;42.140;24.760;2022-09-09T13:30:25;99341.13;;;31.48;45.41
5753;BME280;2901;42.140;24.760;2022-09-09T13:33:19;99340.91;;;31.13;46.16
5753;BME280;2901;42.140;24.760;2022-09-09T13:35:56;99334.47;;;31.15;45.57
5753;BME280;2901;42.140;24.760;2022-09-09T13:38:22;99325.13;;;31.19;45.58
5753;BME280;2901;42.140;24.760;2022-09-09T13:43:27;99327.28;;;30.77;46.46
5753;BME280;2901;42.140;24.760;2022-09-09T13:45:58;99318.41;;;30.67;47.53
5753;BME280;2901;42.140;24.760;2022-09-09T13:48:25;99311.09;;;30.88;48.18
5753;BME280;2901;42.140;24.760;2022-09-09T13:51:04;99309.41;;;30.97;46.10
5753;BME280;2901;42.140;24.760;2022-09-09T13:53:32;99311.97;;;30.99;46.01
5753;BME280;2901;42.140;24.760;2022-09-09T13:55:58;99299.38;;;30.89;46.24
5753;BME280;2901;42.140;24.760;2022-09-09T13:58:25;99298.59;;;30.99;46.24
5753;BME280;2901;42.140;24.760;2022-09-09T14:00:52;99300.53;;;31.06;47.01
5753;BME280;2901;42.140;24.760;2022-09-09T14:03:19;99301.63;;;31.13;46.25
5753;BME280;2901;42.140;24.760;2022-09-09T14:05:45;99304.03;;;31.07;47.08
5753;BME280;2901;42.140;24.760;2022-09-09T14:08:16;99308.53;;;31.06;47.01
5753;BME280;2901;42.140;24.760;2022-09-09T14:10:45;99302.50;;;31.04;46.60
5753;BME280;2901;42.140;24.760;2022-09-09T14:13:10;99301.53;;;31.05;46.17
5753;BME280;2901;42.140;24.760;2022-09-09T14:15:37;99296.44;;;30.93;46.63
5753;BME280;2901;42.140;24.760;2022-09-09T14:18:03;99293.94;;;30.81;47.47
5753;BME280;2901;42.140;24.760;2022-09-09T14:20:28;99291.13;;;30.64;47.70
5753;BME280;2901;42.140;24.760;2022-09-09T14:22:53;99309.00;;;30.63;47.89
5753;BME280;2901;42.140;24.760;2022-09-09T14:25:19;99300.97;;;30.44;48.89
5753;BME280;2901;42.140;24.760;2022-09-09T14:27:44;99298.81;;;30.19;49.30
5753;BME280;2901;42.140;24.760;2022-09-09T14:30:11;99301.31;;;30.01;49.74
5753;BME280;2901;42.140;24.760;2022-09-09T14:32:37;99296.63;;;29.84;50.47
5753;BME280;2901;42.140;24.760;2022-09-09T14:35:03;99286.88;;;29.73;50.98
5753;BME280;2901;42.140;24.760;2022-09-09T14:37:28;99286.94;;;29.83;51.68
5753;BME280;2901;42.140;24.760;2022-09-09T14:39:56;99292.59;;;29.90;50.44
5753;BME280;2901;42.140;24.760;2022-09-09T14:42:21;99297.88;;;29.80;51.24
5753;BME280;2901;42.140;24.760;2022-09-09T14:44:47;99300.81;;;29.77;51.59
5753;BME280;2901;42.140;24.760;2022-09-09T14:47:12;99296.56;;;29.74;51.45
5753;BME280;2901;42.140;24.760;2022-09-09T14:49:38;99286.88;;;29.73;51.91
5753;BME280;2901;42.140;24.760;2022-09-09T14:52:04;99283.41;;;29.82;51.91
5753;BME280;2901;42.140;24.760;2022-09-09T14:54:30;99281.56;;;29.73;50.58
5753;BME280;2901;42.140;24.760;2022-09-09T14:56:56;99283.47;;;29.62;51.52
5753;BME280;2901;42.140;24.760;2022-09-09T14:59:21;99285.28;;;29.61;51.73
5753;BME280;2901;42.140;24.760;2022-09-09T15:01:47;99289.38;;;29.65;52.39
5753;BME280;2901;42.140;24.760;2022-09-09T15:04:13;99290.94;;;29.68;51.78
5753;BME280;2901;42.140;24.760;2022-09-09T15:06:42;99283.19;;;29.65;51.87
5753;BME280;2901;42.140;24.760;2022-09-09T15:09:09;99286.28;;;29.60;52.50
5753;BME280;2901;42.140;24.760;2022-09-09T15:11:36;99274.44;;;29.44;53.15
5753;BME280;2901;42.140;24.760;2022-09-09T15:14:03;99273.94;;;29.29;54.30
5753;BME280;2901;42.140;24.760;2022-09-09T15:16:29;99286.44;;;29.08;54.95
5753;BME280;2901;42.140;24.760;2022-09-09T15:18:58;99286.13;;;29.01;55.43
5753;BME280;2901;42.140;24.760;2022-09-09T15:21:26;99283.13;;;28.95;55.78
5753;BME280;2901;42.140;24.760;2022-09-09T15:23:52;99286.13;;;29.01;55.72
5753;BME280;2901;42.140;24.760;2022-09-09T15:26:18;99284.41;;;29.00;55.54
5753;BME280;2901;42.140;24.760;2022-09-09T15:28:45;99278.03;;;28.92;55.67
5753;BME280;2901;42.140;24.760;2022-09-09T15:31:14;99273.75;;;28.79;55.36
5753;BME280;2901;42.140;24.760;2022-09-09T15:33:53;99274.66;;;28.69;55.02
5753;BME280;2901;42.140;24.760;2022-09-09T15:36:24;99261.59;;;28.66;55.00
5753;BME280;2901;42.140;24.760;2022-09-09T15:38:50;99281.25;;;28.54;55.33
5753;BME280;2901;42.140;24.760;2022-09-09T15:41:18;99275.84;;;28.44;55.89
5753;BME280;2901;42.140;24.760;2022-09-09T15:43:51;99272.13;;;28.35;55.86
5753;BME280;2901;42.140;24.760;2022-09-09T15:48:44;99269.84;;;28.31;55.90
5753;BME280;2901;42.140;24.760;2022-09-09T15:51:10;99267.97;;;28.22;57.35
5753;BME280;2901;42.140;24.760;2022-09-09T15:53:36;99264.09;;;28.15;57.43
5753;BME280;2901;42.140;24.760;2022-09-09T15:56:05;99270.78;;;27.98;58.22
5753;BME280;2901;42.140;24.760;2022-09-09T15:58:35;99271.13;;;27.94;58.10
5753;BME280;2901;42.140;24.760;2022-09-09T16:01:04;99270.69;;;27.89;58.50